Time;durP1;ratioP1;P1;durP2;ratioP2;P2;SDS_P1;SDS_P2;PMS_P1;PMS_P2;Temp;Humidity;BMP_temperature;BMP_pressure;BME280_temperature;BME280_humidity;BME280_pressure;Samples;Min_cycle;Max_cycle;Signal;HPM_P1;HPM_P2
2023/04/28 00:02:01;;;;;;;20.88;12.15;;;;;;;;;;5029709;28;20053;-79
2023/04/28 00:04:27;;;;;;;21.75;12.27;;;;;;;;;;5046783;23;20040;-77
2023/04/28 00:06:54;;;;;;;22.00;11.80;;;;;;;;;;5076284;28;20033;-79
2023/04/28 00:09:20;;;;;;;19.88;12.18;;;;;;;;;;5051021;28;20063;-77
2023/04/28 00:11:46;;;;;;;22.05;13.05;;;;;;;;;;5061967;28;20072;-75
2023/04/28 00:14:12;;;;;;;24.08;13.57;;;;;;;;;;5058191;28;20078;-76
2023/04/28 00:16:38;;;;;;;29.50;16.38;;;;;;;;;;5062720;28;20138;-75
2023/04/28 00:19:05;;;;;;;27.88;17.25;;;;;;;;;;5046731;28;20083;-79
2023/04/28 00:21:31;;;;;;;34.83;16.55;;;;;;;;;;5065119;28;20500;-76
2023/04/28 00:23:57;;;;;;;35.17;17.40;;;;;;;;;;5059918;28;20036;-77
2023/04/28 00:26:23;;;;;;;46.15;22.75;;;;;;;;;;5048313;28;20041;-75
2023/04/28 00:28:49;;;;;;;57.40;26.90;;;;;;;;;;5063043;28;20111;-76
2023/04/28 00:31:15;;;;;;;53.28;25.60;;;;;;;;;;5059147;28;20041;-75
2023/04/28 00:33:41;;;;;;;47.20;24.80;;;;;;;;;;5063422;28;20044;-78
2023/04/28 00:36:08;;;;;;;38.10;18.67;;;;;;;;;;5064571;28;20048;-76
2023/04/28 00:38:34;;;;;;;40.25;20.15;;;;;;;;;;5063965;28;20024;-75
2023/04/28 00:41:01;;;;;;;32.25;18.33;;;;;;;;;;5045049;28;20128;-75
2023/04/28 00:43:27;;;;;;;29.02;15.57;;;;;;;;;;5062280;28;20064;-76
2023/04/28 00:45:53;;;;;;;32.45;15.82;;;;;;;;;;5046970;28;20035;-76
2023/04/28 00:48:20;;;;;;;27.67;15.07;;;;;;;;;;5044929;28;20494;-75
2023/04/28 00:50:47;;;;;;;29.63;13.65;;;;;;;;;;5062781;28;20207;-76
2023/04/28 00:53:13;;;;;;;26.10;13.77;;;;;;;;;;5046484;28;20086;-76
2023/04/28 00:55:39;;;;;;;27.38;13.15;;;;;;;;;;5044762;28;20033;-75
2023/04/28 00:58:06;;;;;;;24.48;13.52;;;;;;;;;;5043340;28;20124;-77
2023/04/28 01:00:32;;;;;;;25.30;13.88;;;;;;;;;;5064071;28;20367;-76
2023/04/28 01:02:58;;;;;;;24.88;13.60;;;;;;;;;;5045376;28;20045;-75
2023/04/28 01:05:25;;;;;;;27.60;13.07;;;;;;;;;;5065761;28;20049;-78
2023/04/28 01:07:52;;;;;;;23.85;13.38;;;;;;;;;;5068013;28;20037;-76
2023/04/28 01:10:18;;;;;;;29.67;13.82;;;;;;;;;;5063846;28;20033;-76
2023/04/28 01:12:44;;;;;;;25.48;13.75;;;;;;;;;;5065679;28;20033;-75
2023/04/28 01:15:15;;;;;;;26.65;13.88;;;;;;;;;;5063316;28;20036;-76
2023/04/28 01:17:41;;;;;;;28.85;13.23;;;;;;;;;;5063525;28;20041;-77
2023/04/28 01:20:07;;;;;;;23.42;12.90;;;;;;;;;;5065945;28;20032;-76
2023/04/28 01:22:33;;;;;;;23.65;13.70;;;;;;;;;;5056743;28;20033;-74
2023/04/28 01:25:00;;;;;;;36.25;14.75;;;;;;;;;;5053386;28;20033;-75
2023/04/28 01:27:26;;;;;;;25.40;13.00;;;;;;;;;;5049566;28;20041;-75
2023/04/28 01:29:52;;;;;;;19.98;12.95;;;;;;;;;;5051532;28;20040;-76
2023/04/28 01:32:18;;;;;;;22.98;13.63;;;;;;;;;;5054428;28;20029;-75
2023/04/28 01:34:44;;;;;;;25.48;14.05;;;;;;;;;;5052693;28;20121;-75
2023/04/28 01:37:10;;;;;;;24.27;13.57;;;;;;;;;;5053761;28;20044;-75
2023/04/28 01:39:36;;;;;;;25.23;13.68;;;;;;;;;;5036914;28;20104;-75
2023/04/28 01:42:03;;;;;;;25.15;14.70;;;;;;;;;;5054029;28;20034;-75
2023/04/28 01:44:29;;;;;;;26.65;14.43;;;;;;;;;;5052313;28;20041;-75
2023/04/28 01:46:55;;;;;;;26.38;14.70;;;;;;;;;;5055072;28;20119;-74
2023/04/28 01:49:21;;;;;;;28.38;14.20;;;;;;;;;;5036360;28;20386;-74
2023/04/28 01:51:47;;;;;;;23.48;14.13;;;;;;;;;;5052027;28;20083;-75
2023/04/28 01:54:13;;;;;;;25.98;14.55;;;;;;;;;;5053853;28;20512;-74
2023/04/28 01:56:40;;;;;;;30.05;15.68;;;;;;;;;;5053831;28;20052;-75
2023/04/28 01:59:06;;;;;;;28.10;16.05;;;;;;;;;;5054622;28;20087;-75
2023/04/28 02:01:32;;;;;;;36.92;18.08;;;;;;;;;;5054530;28;20048;-75
2023/04/28 02:03:58;;;;;;;32.95;16.40;;;;;;;;;;5054071;28;20033;-75
2023/04/28 02:06:24;;;;;;;35.45;18.20;;;;;;;;;;5053932;28;20104;-74
2023/04/28 02:08:50;;;;;;;34.47;17.55;;;;;;;;;;5050510;28;20026;-75
2023/04/28 02:11:16;;;;;;;35.05;18.80;;;;;;;;;;5040341;28;20352;-75
2023/04/28 02:13:42;;;;;;;41.70;19.42;;;;;;;;;;5035431;28;20493;-76
2023/04/28 02:16:08;;;;;;;35.75;20.17;;;;;;;;;;5042863;28;20434;-74
2023/04/28 02:18:35;;;;;;;36.47;19.27;;;;;;;;;;5050543;28;20049;-75
2023/04/28 02:21:10;;;;;;;34.13;19.48;;;;;;;;;;5052462;28;20064;-77
2023/04/28 02:23:36;;;;;;;39.22;20.10;;;;;;;;;;5036724;28;20033;-76
2023/04/28 02:26:03;;;;;;;39.90;20.15;;;;;;;;;;5055195;28;20036;-75
2023/04/28 02:28:29;;;;;;;37.65;19.67;;;;;;;;;;5040632;28;20094;-75
2023/04/28 02:31:08;;;;;;;37.03;20.15;;;;;;;;;;5045977;28;20116;-75
2023/04/28 02:33:34;;;;;;;37.88;19.35;;;;;;;;;;5056764;28;20044;-75
2023/04/28 02:36:01;;;;;;;35.08;19.40;;;;;;;;;;5057148;28;20541;-79
2023/04/28 02:38:27;;;;;;;35.13;19.33;;;;;;;;;;5076569;28;20072;-81
2023/04/28 02:41:00;;;;;;;36.40;19.00;;;;;;;;;;5048932;28;20037;-76
2023/04/28 02:43:26;;;;;;;37.95;19.90;;;;;;;;;;5037150;28;20033;-75
2023/04/28 02:45:53;;;;;;;41.72;20.35;;;;;;;;;;5053462;28;20025;-76
2023/04/28 02:48:19;;;;;;;39.65;20.60;;;;;;;;;;5037097;28;20044;-75
2023/04/28 02:50:45;;;;;;;35.50;19.83;;;;;;;;;;5058475;28;20036;-75
2023/04/28 02:53:12;;;;;;;39.67;21.55;;;;;;;;;;5039372;28;20037;-75
2023/04/28 02:55:38;;;;;;;35.50;19.88;;;;;;;;;;5054178;28;20044;-75
2023/04/28 02:58:04;;;;;;;38.70;20.17;;;;;;;;;;5049445;28;20475;-75
2023/04/28 03:00:30;;;;;;;35.65;20.13;;;;;;;;;;5035335;28;20833;-75
2023/04/28 03:02:56;;;;;;;40.22;20.30;;;;;;;;;;5059310;28;20092;-81
2023/04/28 03:05:22;;;;;;;37.55;20.63;;;;;;;;;;5055681;28;20064;-79
2023/04/28 03:07:48;;;;;;;42.17;21.67;;;;;;;;;;5037855;28;20030;-81
2023/04/28 03:10:14;;;;;;;41.83;21.23;;;;;;;;;;5073527;28;20024;-81
2023/04/28 03:12:40;;;;;;;44.10;21.73;;;;;;;;;;5074768;28;20128;-83
2023/04/28 03:15:07;;;;;;;43.72;21.80;;;;;;;;;;5074317;28;20172;-80
2023/04/28 03:17:35;;;;;;;42.10;20.98;;;;;;;;;;5058329;28;20052;-81
2023/04/28 03:20:02;;;;;;;38.97;20.95;;;;;;;;;;5071152;28;20021;-77
2023/04/28 03:22:28;;;;;;;40.45;21.23;;;;;;;;;;5046502;28;20520;-78
2023/04/28 03:24:54;;;;;;;37.58;20.02;;;;;;;;;;5072636;28;20036;-79
2023/04/28 03:27:20;;;;;;;37.00;20.13;;;;;;;;;;5075254;28;20009;-76
2023/04/28 03:29:46;;;;;;;41.08;22.35;;;;;;;;;;5054906;28;20039;-80
2023/04/28 03:32:12;;;;;;;39.78;21.95;;;;;;;;;;5071939;28;20051;-77
2023/04/28 03:34:40;;;;;;;41.85;21.17;;;;;;;;;;5074575;28;20045;-81
2023/04/28 03:37:06;;;;;;;38.53;19.60;;;;;;;;;;5071160;28;20042;-78
2023/04/28 03:39:32;;;;;;;36.78;19.77;;;;;;;;;;5078012;28;20017;-77
2023/04/28 03:41:58;;;;;;;37.55;18.88;;;;;;;;;;5078834;28;20036;-80
2023/04/28 03:44:25;;;;;;;38.80;17.92;;;;;;;;;;5078204;28;20036;-77
2023/04/28 03:49:57;;;;;;;35.35;17.95;;;;;;;;;;5078985;28;20025;-80
2023/04/28 03:52:23;;;;;;;35.63;17.85;;;;;;;;;;5076049;28;20021;-80
2023/04/28 03:54:49;;;;;;;35.72;17.92;;;;;;;;;;5074718;28;20055;-77
2023/04/28 03:57:15;;;;;;;31.05;17.75;;;;;;;;;;5077478;28;20079;-80
2023/04/28 03:59:42;;;;;;;31.13;17.90;;;;;;;;;;5068432;28;20033;-74
2023/04/28 04:02:08;;;;;;;35.97;17.17;;;;;;;;;;5055448;28;20112;-75
2023/04/28 04:04:34;;;;;;;27.88;16.83;;;;;;;;;;5058309;28;20124;-76
2023/04/28 04:07:00;;;;;;;30.50;17.08;;;;;;;;;;5060906;28;20041;-75
2023/04/28 04:09:26;;;;;;;32.88;16.77;;;;;;;;;;5060617;28;20033;-75
2023/04/28 04:11:52;;;;;;;29.60;16.70;;;;;;;;;;5062670;28;20056;-76
2023/04/28 04:14:18;;;;;;;32.58;17.40;;;;;;;;;;5047896;28;20041;-74
2023/04/28 04:16:46;;;;;;;34.63;16.92;;;;;;;;;;5043982;28;20087;-79
2023/04/28 04:19:12;;;;;;;32.35;16.27;;;;;;;;;;5071591;28;20037;-78
2023/04/28 04:21:38;;;;;;;29.17;16.17;;;;;;;;;;5059737;28;20089;-82
2023/04/28 04:24:05;;;;;;;32.95;16.83;;;;;;;;;;5078064;28;20044;-81
2023/04/28 04:26:31;;;;;;;31.58;16.42;;;;;;;;;;5079461;28;20024;-82
2023/04/28 04:28:57;;;;;;;28.55;16.83;;;;;;;;;;5078910;28;20059;-80
2023/04/28 04:31:23;;;;;;;29.60;16.83;;;;;;;;;;5079198;28;20094;-81
2023/04/28 04:33:49;;;;;;;33.72;17.58;;;;;;;;;;5215692;23;20077;-80
2023/04/28 04:36:15;;;;;;;34.28;18.10;;;;;;;;;;5108667;28;20037;-77
2023/04/28 04:38:41;;;;;;;35.58;18.48;;;;;;;;;;5108249;28;20032;-79
2023/04/28 04:41:07;;;;;;;29.15;17.08;;;;;;;;;;5102675;28;20036;-79
2023/04/28 04:43:33;;;;;;;29.77;17.88;;;;;;;;;;5089568;28;20036;-77
2023/04/28 04:45:59;;;;;;;35.50;18.10;;;;;;;;;;5068554;28;20547;-77
2023/04/28 04:48:26;;;;;;;33.45;16.95;;;;;;;;;;5088009;28;20091;-75
2023/04/28 04:50:52;;;;;;;25.23;15.30;;;;;;;;;;5091267;28;20029;-76
2023/04/28 04:53:18;;;;;;;32.60;15.70;;;;;;;;;;5065816;28;20028;-75
2023/04/28 04:55:44;;;;;;;30.77;15.02;;;;;;;;;;5062880;28;20059;-77
2023/04/28 04:58:10;;;;;;;26.83;15.05;;;;;;;;;;5059972;28;20056;-77
2023/04/28 05:00:36;;;;;;;26.70;15.63;;;;;;;;;;5083552;28;20056;-76
2023/04/28 05:03:04;;;;;;;27.65;15.85;;;;;;;;;;5082556;28;20036;-75
2023/04/28 05:05:31;;;;;;;27.45;15.05;;;;;;;;;;5086635;28;20036;-76
2023/04/28 05:07:57;;;;;;;30.15;15.88;;;;;;;;;;5085223;28;20489;-76
2023/04/28 05:10:24;;;;;;;30.50;17.02;;;;;;;;;;5091204;28;20048;-76
2023/04/28 05:12:50;;;;;;;30.77;17.02;;;;;;;;;;5083831;28;20032;-76
2023/04/28 05:18:38;;;;;;;30.67;18.50;;;;;;;;;;5118170;28;20039;-82
2023/04/28 05:21:05;;;;;;;31.50;17.38;;;;;;;;;;5094658;28;20032;-78
2023/04/28 05:23:31;;;;;;;31.90;17.83;;;;;;;;;;5097001;28;20020;-77
2023/04/28 05:25:57;;;;;;;37.80;18.30;;;;;;;;;;5096963;28;20397;-81
2023/04/28 05:28:23;;;;;;;33.08;17.83;;;;;;;;;;5097774;28;20024;-77
2023/04/28 05:30:49;;;;;;;32.60;18.35;;;;;;;;;;5105136;28;20408;-75
2023/04/28 05:33:15;;;;;;;34.28;18.65;;;;;;;;;;5093682;28;20105;-75
2023/04/28 05:35:42;;;;;;;32.20;18.42;;;;;;;;;;5104612;28;20044;-77
2023/04/28 05:38:08;;;;;;;32.55;18.70;;;;;;;;;;5099857;28;20485;-75
2023/04/28 05:40:34;;;;;;;39.22;19.90;;;;;;;;;;5079609;28;20036;-75
2023/04/28 05:43:00;;;;;;;32.35;19.55;;;;;;;;;;5082966;28;20055;-77
2023/04/28 05:45:26;;;;;;;34.25;19.45;;;;;;;;;;5094344;28;20026;-76
2023/04/28 05:47:52;;;;;;;36.33;20.17;;;;;;;;;;5091035;28;20033;-75
2023/04/28 05:50:18;;;;;;;39.58;20.50;;;;;;;;;;5072265;28;20033;-77
2023/04/28 05:52:44;;;;;;;39.25;19.98;;;;;;;;;;5094378;28;20105;-76
2023/04/28 05:55:11;;;;;;;38.67;20.67;;;;;;;;;;5089757;28;20028;-75
2023/04/28 05:57:37;;;;;;;39.63;20.23;;;;;;;;;;5062861;28;20126;-75
2023/04/28 06:00:03;;;;;;;37.15;18.80;;;;;;;;;;5075738;28;20032;-75
2023/04/28 06:02:29;;;;;;;40.30;19.95;;;;;;;;;;5079100;28;20072;-75
2023/04/28 06:04:55;;;;;;;37.25;19.15;;;;;;;;;;5060061;28;20029;-76
2023/04/28 06:07:21;;;;;;;38.35;17.95;;;;;;;;;;5083606;28;20038;-75
2023/04/28 06:09:47;;;;;;;31.70;16.90;;;;;;;;;;5089850;28;20033;-76
2023/04/28 06:12:13;;;;;;;29.50;15.85;;;;;;;;;;5089185;28;20032;-75
2023/04/28 06:14:39;;;;;;;34.53;18.15;;;;;;;;;;5077546;28;20036;-75
2023/04/28 06:17:06;;;;;;;32.67;16.17;;;;;;;;;;5079230;28;20040;-75
2023/04/28 06:19:32;;;;;;;29.10;14.18;;;;;;;;;;5084859;28;20089;-75
2023/04/28 06:21:58;;;;;;;23.73;12.90;;;;;;;;;;5070386;28;20063;-75
2023/04/28 06:24:24;;;;;;;23.63;11.27;;;;;;;;;;5103677;28;20032;-74
2023/04/28 06:26:50;;;;;;;23.48;11.68;;;;;;;;;;5067404;28;20413;-75
2023/04/28 06:29:16;;;;;;;20.60;10.63;;;;;;;;;;5075174;28;20040;-75
2023/04/28 06:31:42;;;;;;;23.88;11.38;;;;;;;;;;5072658;28;20135;-75
2023/04/28 06:34:08;;;;;;;18.80;11.07;;;;;;;;;;5075590;28;20062;-75
2023/04/28 06:36:35;;;;;;;19.13;10.07;;;;;;;;;;5057793;28;20094;-75
2023/04/28 06:39:01;;;;;;;20.38;10.02;;;;;;;;;;5077544;28;20060;-76
2023/04/28 06:41:28;;;;;;;19.92;9.25;;;;;;;;;;5079382;28;20040;-76
2023/04/28 06:43:54;;;;;;;24.50;10.23;;;;;;;;;;5069251;23;20069;-76
2023/04/28 06:46:20;;;;;;;22.30;10.52;;;307.50;2304.00;;;;;;5040851;28;20092;-76
2023/04/28 06:51:14;;;;;;;18.38;9.65;;;;;;;;;;5073728;22;20048;-76
2023/04/28 06:53:41;;;;;;;21.42;10.13;;;;;;;;;;5042610;28;20037;-76
2023/04/28 06:56:07;;;;;;;18.23;9.50;;;;;;;;;;5062581;28;20045;-75
2023/04/28 06:58:33;;;;;;;18.98;10.02;;;;;;;;;;5057469;28;20103;-76
2023/04/28 07:00:59;;;;;;;18.88;9.63;;;;;;;;;;5044076;28;20070;-76
2023/04/28 07:03:26;;;;;;;15.90;8.48;;;;;;;;;;5057392;28;20037;-77
2023/04/28 07:05:52;;;;;;;15.18;8.05;;;;;;;;;;5057307;28;20033;-76
2023/04/28 07:08:18;;;;;;;17.25;8.88;;;;;;;;;;5055486;28;20116;-75
2023/04/28 07:10:44;;;;;;;16.90;8.57;;;;;;;;;;5054920;28;20026;-76
2023/04/28 07:13:11;;;;;;;14.60;7.20;;;;;;;;;;5057868;28;20037;-76
2023/04/28 07:15:37;;;;;;;16.23;7.65;;;;;;;;;;5059997;28;20033;-76
2023/04/28 07:18:03;;;;;;;16.75;7.22;;;;;;;;;;5045371;28;20029;-75
2023/04/28 07:20:29;;;;;;;13.25;7.15;;;;;;;;;;5051626;28;20505;-75
2023/04/28 07:22:55;;;;;;;15.93;7.00;;;;;;;;;;5056687;28;20502;-75
2023/04/28 07:25:21;;;;;;;17.02;7.85;;;;;;;;;;5026410;28;20033;-78
2023/04/28 07:27:47;;;;;;;17.40;8.13;;;;;;;;;;5032834;28;20097;-77
2023/04/28 07:30:13;;;;;;;15.63;8.45;;;;;;;;;;5035890;28;20041;-78
2023/04/28 07:32:39;;;;;;;20.48;9.68;;;;;;;;;;5058301;28;20068;-79
2023/04/28 07:35:06;;;;;;;15.55;7.75;;;;;;;;;;5062777;28;20053;-80
2023/04/28 07:37:32;;;;;;;18.55;8.48;;;;;;;;;;5059578;28;20056;-77
2023/04/28 07:39:58;;;;;;;20.17;8.90;;;;;;;;;;5040334;28;20121;-78
2023/04/28 07:42:24;;;;;;;21.10;9.65;;;;;;;;;;5049322;28;20044;-78
2023/04/28 07:44:50;;;;;;;20.45;9.52;;;;;;;;;;5045199;28;20036;-76
2023/04/28 07:47:17;;;;;;;24.83;12.55;;;;;;;;;;5044830;28;20437;-77
2023/04/28 07:49:43;;;;;;;16.55;8.43;;;;;;;;;;5023823;28;20080;-76
2023/04/28 07:52:09;;;;;;;16.80;8.48;;;;;;;;;;5051462;28;20033;-77
2023/04/28 07:54:35;;;;;;;16.17;7.63;;;;;;;;;;5046712;28;20029;-78
2023/04/28 07:57:04;;;;;;;16.23;6.90;;;;;;;;;;5046297;28;20046;-77
2023/04/28 07:59:30;;;;;;;13.02;6.43;;;;;;;;;;5051233;28;20068;-78
2023/04/28 08:01:56;;;;;;;12.02;7.15;;;;;;;;;;5051467;28;20037;-78
2023/04/28 08:04:22;;;;;;;14.82;6.30;;;;;;;;;;5020152;28;20029;-76
2023/04/28 08:06:49;;;;;;;10.00;5.45;;;;;;;;;;5046320;28;20037;-79
2023/04/28 08:09:15;;;;;;;11.43;6.45;;;;;;;;;;5052757;28;20029;-77
2023/04/28 08:11:41;;;;;;;12.75;4.80;;;;;;;;;;5058379;28;20044;-80
2023/04/28 08:14:07;;;;;;;11.40;5.00;;;;;;;;;;5057150;28;20082;-77
2023/04/28 08:16:37;;;;;;;9.90;4.43;;;;;;;;;;5051479;28;20101;-76
2023/04/28 08:19:03;;;;;;;10.57;4.30;;;;;;;;;;5052195;28;20117;-78
2023/04/28 08:21:29;;;;;;;8.90;4.30;;;;;;;;;;5032188;28;20121;-81
2023/04/28 08:23:55;;;;;;;8.43;4.03;;;;;;;;;;5033146;28;20433;-75
2023/04/28 08:26:23;;;;;;;8.05;3.50;;;;;;;;;;5050594;28;20025;-77
2023/04/28 08:28:50;;;;;;;9.57;3.40;;;;;;;;;;5033257;28;20032;-78
2023/04/28 08:31:16;;;;;;;8.07;3.33;;;;;;;;;;5017450;28;20040;-76
2023/04/28 08:33:43;;;;;;;12.27;3.85;;;;;;;;;;5025170;28;20036;-79
2023/04/28 08:36:13;;;;;;;9.63;3.88;;;435.40;1459.20;;;;;;5037837;28;20065;-75
2023/04/28 08:38:40;;;;;;;7.07;3.45;;;435.70;1459.20;;;;;;5043650;28;20037;-80
2023/04/28 08:41:06;;;;;;;8.30;4.03;;;435.70;1408.00;;;;;;5038144;28;20037;-79
2023/04/28 08:43:34;;;;;;;7.90;3.47;;;;;;;;;;5049143;28;20040;-75
2023/04/28 08:46:02;;;;;;;12.15;3.67;;;;;;;;;;5057931;28;20028;-80
2023/04/28 08:48:32;;;;;;;10.95;3.25;;;;;;;;;;5059719;28;20057;-78
2023/04/28 08:51:00;;;;;;;9.15;3.55;;;;;;;;;;5047142;28;20079;-76
2023/04/28 08:53:26;;;;;;;7.63;3.35;;;;;;;;;;5067345;28;20041;-77
2023/04/28 08:55:56;;;;;;;8.60;3.65;;;;;;;;;;5048004;28;20033;-81
2023/04/28 08:58:23;;;;;;;10.80;4.18;;;;;;;;;;5060211;28;20065;-78
2023/04/28 09:00:51;;;;;;;10.90;3.30;;;;;;;;;;5047923;28;20406;-76
2023/04/28 09:03:17;;;;;;;7.65;3.38;;;;;;;;;;5065863;28;20051;-76
2023/04/28 09:05:43;;;;;;;6.28;3.17;;;;;;;;;;5060838;28;20033;-76
2023/04/28 09:08:11;;;;;;;6.13;3.17;;;;;;;;;;5059784;28;20057;-76
2023/04/28 09:10:37;;;;;;;6.00;3.45;;;;;;;;;;5059865;28;20466;-76
2023/04/28 09:13:03;;;;;;;7.47;3.33;;;;;;;;;;5057974;28;20549;-75
2023/04/28 09:18:33;;;;;;;8.13;3.80;;;;;;;;;;5052433;28;20031;-77
2023/04/28 09:21:06;;;;;;;7.25;3.63;;;;;;;;;;5058562;28;20471;-77
2023/04/28 09:23:32;;;;;;;10.20;3.45;;;;;;;;;;5052066;28;20045;-75
2023/04/28 09:25:59;;;;;;;8.85;3.22;;;;;;;;;;5060295;28;20040;-77
2023/04/28 09:28:25;;;;;;;8.38;3.15;;;;;;;;;;5059192;28;20093;-76
2023/04/28 09:30:52;;;;;;;7.95;2.85;;;;;;;;;;5058565;28;20033;-76
2023/04/28 09:33:18;;;;;;;15.93;3.60;;;;;;;;;;5057820;28;20037;-75
2023/04/28 09:35:46;;;;;;;11.07;3.20;;;;;;;;;;5056719;28;20036;-78
2023/04/28 09:38:12;;;;;;;6.90;2.67;;;;;;;;;;5062131;28;20052;-78
2023/04/28 09:40:57;;;;;;;6.85;2.78;;;;;;;;;;5056455;28;20047;-77
2023/04/28 09:43:26;;;;;;;7.18;2.88;;;;;;;;;;5057372;28;20486;-76
2023/04/28 09:45:52;;;;;;;6.57;2.80;;;;;;;;;;5060330;28;20037;-75
2023/04/28 09:48:26;;;;;;;8.20;3.08;;;;;;;;;;5058979;28;20029;-75
2023/04/28 09:50:54;;;;;;;7.35;2.80;;;;;;;;;;5054937;28;20061;-76
2023/04/28 09:53:21;;;;;;;5.05;2.50;;;;;;;;;;5058030;28;20039;-76
2023/04/28 09:55:48;;;;;;;7.03;2.60;;;;;;;;;;5058611;28;20036;-78
2023/04/28 09:58:15;;;;;;;7.82;2.50;;;;;;;;;;5058469;28;20037;-76
2023/04/28 10:00:42;;;;;;;7.68;2.60;;;;;;;;;;5044385;28;20038;-77
2023/04/28 10:03:09;;;;;;;6.07;2.60;;;;;;;;;;5056493;28;20048;-78
2023/04/28 10:05:35;;;;;;;3.53;2.10;;;;;;;;;;5036734;28;20398;-76
2023/04/28 10:08:02;;;;;;;6.07;2.55;;;;;;;;;;5051266;28;20739;-76
2023/04/28 10:10:28;;;;;;;6.90;2.33;;;;;;;;;;5052469;28;20394;-76
2023/04/28 10:12:55;;;;;;;5.50;2.58;;;;;;;;;;5025570;28;20075;-77
2023/04/28 10:15:21;;;;;;;4.05;2.60;;;;;;;;;;5053323;28;20033;-75
2023/04/28 10:17:47;;;;;;;5.70;2.70;;;;;;;;;;5052491;28;20041;-77
2023/04/28 10:20:15;;;;;;;6.75;2.47;;;;;;;;;;5036338;28;20120;-76
2023/04/28 10:23:00;;;;;;;8.48;2.90;;;;;;;;;;5025511;28;20029;-76
2023/04/28 10:25:27;;;;;;;6.38;2.63;;;;;;;;;;5056878;28;20040;-76
2023/04/28 10:27:53;;;;;;;6.10;2.55;;;;;;;;;;5056050;28;20058;-77
2023/04/28 10:30:23;;;;;;;5.43;2.60;;;;;;;;;;5055668;28;20139;-77
2023/04/28 10:33:08;;;;;;;5.88;2.80;;;;;;;;;;5052873;28;20035;-76
2023/04/28 10:35:36;;;;;;;6.30;2.50;;;;;;;;;;5051295;28;20509;-77
2023/04/28 10:38:09;;;;;;;3.83;2.47;;;;;;;;;;5051570;28;20037;-76
2023/04/28 10:40:35;;;;;;;8.55;2.60;;;;;;;;;;5054172;28;20029;-76
2023/04/28 10:43:03;;;;;;;5.82;2.20;;;;;;;;;;5049259;28;20029;-77
2023/04/28 10:45:48;;;;;;;5.88;2.42;;;;;;;;;;5055601;28;20044;-75
2023/04/28 10:48:13;;;;;;;;;;;;;;;;;;5047812;28;20084;-77
2023/04/28 10:50:58;;;;;;;5.10;2.58;;;;;;;;;;5025557;28;19924;-80
2023/04/28 10:53:49;;;;;;;3.78;2.22;;;;;;;;;;5046481;28;20038;-77
2023/04/28 10:56:18;;;;;;;6.78;2.40;;;;;;;;;;5033220;28;20049;-84
2023/04/28 10:58:48;;;;;;;5.68;2.58;;;;;;;;;;5026971;28;20029;-78
2023/04/28 11:01:20;;;;;;;6.80;2.65;;;;;;;;;;5028181;28;20044;-77
2023/04/28 11:03:46;;;;;;;5.85;2.60;;;;;;;;;;5055771;28;20025;-78
2023/04/28 11:06:33;;;;;;;4.55;2.25;;;;;;;;;;5055300;28;20476;-76
2023/04/28 11:09:01;;;;;;;6.78;2.45;;;;;;;;;;5054079;28;20108;-78
2023/04/28 11:11:27;;;;;;;7.55;2.70;;;;;;;;;;5051852;28;20029;-76
2023/04/28 11:13:54;;;;;;;6.72;2.40;;;;;;;;;;5033870;28;20441;-77
2023/04/28 11:16:21;;;;;;;9.40;2.65;;;;;;;;;;5053772;28;20064;-75
2023/04/28 11:18:58;;;;;;;5.88;2.60;;;;;;;;;;5054087;28;20462;-77
2023/04/28 11:21:26;;;;;;;5.40;2.55;;;;;;;;;;5046935;28;20045;-81
2023/04/28 11:23:53;;;;;;;5.20;2.25;;;;;;;;;;5034180;28;20037;-76
2023/04/28 11:26:19;;;;;;;5.88;2.75;;;;;;;;;;5042301;28;20037;-76
2023/04/28 11:28:49;;;;;;;6.85;2.65;;;;;;;;;;5049181;28;20060;-76
2023/04/28 11:31:18;;;;;;;4.53;2.30;;;;;;;;;;5035955;28;20087;-77
2023/04/28 11:33:49;;;;;;;6.72;2.40;;;;;;;;;;5019152;28;20394;-77
2023/04/28 11:36:22;;;;;;;6.30;2.88;;;;;;;;;;5033908;28;20053;-77
2023/04/28 11:38:48;;;;;;;6.38;2.88;;;;;;;;;;5022598;28;20021;-76
2023/04/28 11:41:14;;;;;;;6.28;2.45;;;;;;;;;;5053004;28;20123;-75
2023/04/28 11:43:40;;;;;;;6.53;2.70;;;;;;;;;;5052886;28;20478;-75
2023/04/28 11:46:07;;;;;;;5.07;2.33;;;;;;;;;;5035501;28;20041;-77
2023/04/28 11:48:33;;;;;;;9.02;3.10;;;;;;;;;;5049780;28;20394;-79
2023/04/28 11:50:59;;;;;;;6.00;2.70;;;;;;;;;;5025699;28;20049;-81
2023/04/28 11:53:42;;;;;;;5.22;2.75;;;;;;;;;;5017227;28;20037;-76
2023/04/28 11:56:08;;;;;;;6.78;2.80;;;;;;;;;;5050504;28;20052;-78
2023/04/28 11:58:34;;;;;;;6.15;3.00;;;;;;;;;;5035741;28;20033;-76
2023/04/28 12:01:10;;;;;;;7.70;2.90;;;;;;;;;;5052985;28;20399;-78
2023/04/28 12:03:46;;;;;;;6.63;2.80;;;;;;;;;;5036214;28;20087;-77
2023/04/28 12:06:17;;;;;;;6.10;2.80;;;;;;;;;;5051618;28;20388;-76
2023/04/28 12:08:43;;;;;;;7.18;2.45;;;;;;;;;;5035138;28;20044;-78
2023/04/28 12:11:11;;;;;;;5.45;2.50;;;;;;;;;;5054127;28;20164;-79
2023/04/28 12:13:38;;;;;;;6.28;2.40;;;;;;;;;;5052879;28;20033;-76
2023/04/28 12:16:05;;;;;;;8.40;3.10;;;;;;;;;;5039483;28;20056;-76
2023/04/28 12:18:35;;;;;;;6.97;3.15;;;;;;;;;;5041463;28;20037;-85
2023/04/28 12:21:01;;;;;;;6.95;2.97;;;;;;;;;;5054188;28;20442;-80
2023/04/28 12:23:35;;;;;;;5.50;2.95;;;;;;;;;;5054128;28;20049;-80
2023/04/28 12:26:01;;;;;;;6.57;3.13;;;;;;;;;;5054237;28;20025;-84
2023/04/28 12:28:37;;;;;;;5.97;2.92;;;;;;;;;;5054311;28;20060;-78
2023/04/28 12:31:05;;;;;;;7.70;3.00;;;;;;;;;;5053887;28;20025;-77
2023/04/28 12:33:36;;;;;;;6.43;2.80;;;;;;;;;;5036481;28;20037;-81
2023/04/28 12:36:02;;;;;;;9.50;3.05;;;;;;;;;;5032997;28;20037;-83
2023/04/28 12:38:29;;;;;;;7.45;3.70;;;;;;;;;;5044407;28;20036;-82
2023/04/28 12:40:55;;;;;;;6.70;3.00;;;;;;;;;;5053138;28;20036;-84
2023/04/28 12:43:22;;;;;;;9.23;2.90;;;;;;;;;;5043956;28;20032;-87
2023/04/28 12:45:49;;;;;;;6.43;3.10;;;;;;;;;;5047326;28;20037;-87
2023/04/28 12:48:15;;;;;;;10.38;2.88;;;;;;;;;;5042631;28;20025;-86
2023/04/28 12:50:41;;;;;;;9.23;3.45;;;;;;;;;;5022559;28;20509;-85
2023/04/28 12:53:07;;;;;;;7.88;3.33;;;;;;;;;;5002563;28;20145;-85
2023/04/28 12:55:34;;;;;;;7.30;3.33;;;;;;;;;;5033312;28;20053;-83
2023/04/28 12:58:00;;;;;;;6.10;2.72;;;;;;;;;;5034487;28;20049;-83
2023/04/28 13:00:26;;;;;;;5.80;3.25;;;;;;;;;;5019652;28;20030;-79
2023/04/28 13:02:52;;;;;;;6.20;3.40;;;;;;;;;;5036412;28;20064;-75
2023/04/28 13:05:18;;;;;;;5.93;3.35;;;;;;;;;;5033015;28;20044;-76
2023/04/28 13:07:44;;;;;;;7.05;3.20;;;;;;;;;;5013193;28;20030;-76
2023/04/28 13:10:11;;;;;;;6.32;2.90;;;;;;;;;;5020664;28;20061;-75
2023/04/28 13:12:37;;;;;;;5.70;2.70;;;;;;;;;;5012173;28;20034;-79
2023/04/28 13:15:04;;;;;;;6.00;2.92;;;;;;;;;;5030314;28;20091;-75
2023/04/28 13:17:30;;;;;;;9.70;4.00;;;;;;;;;;5030666;28;20403;-80
2023/04/28 13:19:56;;;;;;;7.80;2.78;;;;;;;;;;5026532;28;20041;-78
2023/04/28 13:22:22;;;;;;;6.78;2.88;;;;;;;;;;5032575;28;20097;-75
2023/04/28 13:24:48;;;;;;;8.77;4.50;;;;;;;;;;5032077;28;20483;-85
2023/04/28 13:27:14;;;;;;;7.90;4.45;;;;;;;;;;5032701;28;20068;-78
2023/04/28 13:29:40;;;;;;;7.10;2.70;;;512.70;1203.20;;;;;;5033056;28;20026;-83
2023/04/28 13:32:06;;;;;;;6.57;2.60;;;;;;;;;;5033044;28;20040;-75
2023/04/28 13:34:32;;;;;;;6.65;2.72;;;;;;;;;;5033523;28;20026;-79
2023/04/28 13:36:58;;;;;;;7.45;2.72;;;;;;;;;;5031838;28;20071;-77
2023/04/28 13:39:24;;;;;;;6.05;2.80;;;;;;;;;;5032565;28;20068;-78
2023/04/28 13:41:50;;;;;;;6.68;2.70;;;512.40;1305.60;;;;;;5031115;28;20212;-76
2023/04/28 13:44:16;;;;;;;6.97;2.67;;;512.30;1331.20;;;;;;5032108;28;20398;-77
2023/04/28 13:46:42;;;;;;;6.38;2.75;;;;;;;;;;5031894;28;20045;-80
2023/04/28 13:49:11;;;;;;;8.95;3.13;;;;;;;;;;5014178;28;20045;-74
2023/04/28 13:51:37;;;;;;;8.02;3.28;;;;;;;;;;5031877;28;20044;-80
2023/04/28 13:54:07;;;;;;;6.50;2.70;;;512.60;1331.20;;;;;;5036189;28;20625;-75
2023/04/28 13:56:34;;;;;;;5.38;3.15;;;;;;;;;;5050583;28;20037;-75
2023/04/28 13:59:00;;;;;;;15.95;3.65;;;;;;;;;;5051814;28;20041;-80
2023/04/28 14:01:26;;;;;;;8.13;3.83;;;;;;;;;;5051523;28;20037;-76
2023/04/28 14:03:52;;;;;;;6.35;2.78;;;;;;;;;;5052143;28;20485;-77
2023/04/28 14:06:18;;;;;;;8.52;3.22;;;;;;;;;;5047491;28;20041;-76
2023/04/28 14:08:44;;;;;;;8.50;3.13;;;;;;;;;;5050176;28;20111;-77
2023/04/28 14:11:10;;;;;;;4.88;2.38;;;;;;;;;;5043485;28;20088;-76
2023/04/28 14:13:37;;;;;;;8.95;2.50;;;;;;;;;;5033780;28;20482;-76
2023/04/28 14:16:03;;;;;;;5.82;2.65;;;;;;;;;;5032973;28;20045;-78
2023/04/28 14:18:29;;;;;;;8.60;2.60;;;;;;;;;;5052073;28;20033;-77
2023/04/28 14:20:56;;;;;;;4.85;2.70;;;;;;;;;;5033846;28;20044;-83
2023/04/28 14:23:22;;;;;;;9.52;3.25;;;;;;;;;;5028800;28;20029;-77
2023/04/28 14:25:49;;;;;;;5.28;2.40;;;;;;;;;;5036540;28;20112;-76
2023/04/28 14:28:15;;;;;;;11.02;4.53;;;;;;;;;;5044634;28;20029;-78
2023/04/28 14:30:41;;;;;;;10.93;7.35;;;;;;;;;;5021052;28;20040;-83
2023/04/28 14:33:07;;;;;;;6.32;3.33;;;;;;;;;;5047880;28;20382;-75
2023/04/28 14:35:33;;;;;;;4.68;2.47;;;;;;;;;;5043363;28;20045;-79
2023/04/28 14:38:00;;;;;;;5.35;2.30;;;;;;;;;;5036520;28;20088;-76